sensor_id;sensor_type;location;lat;lon;timestamp;pressure;altitude;pressure_sealevel;temperature;humidity
56420;BME280;42323;52.170;7.538;2023-03-22T00:01:45;100611.38;;;8.56;94.30
56420;BME280;42323;52.170;7.538;2023-03-22T00:04:11;100588.03;;;8.46;93.86
56420;BME280;42323;52.170;7.538;2023-03-22T00:06:38;100577.06;;;8.35;94.17
56420;BME280;42323;52.170;7.538;2023-03-22T00:09:05;100610.06;;;8.52;93.95
56420;BME280;42323;52.170;7.538;2023-03-22T00:11:31;100573.31;;;8.29;94.11
56420;BME280;42323;52.170;7.538;2023-03-22T00:13:58;100586.06;;;8.40;94.26
56420;BME280;42323;52.170;7.538;2023-03-22T00:16:25;100605.31;;;8.47;93.82
56420;BME280;42323;52.170;7.538;2023-03-22T00:18:51;100606.44;;;8.45;94.05
56420;BME280;42323;52.170;7.538;2023-03-22T00:21:18;100590.25;;;8.33;94.73
56420;BME280;42323;52.170;7.538;2023-03-22T00:23:45;100588.63;;;8.32;94.77
56420;BME280;42323;52.170;7.538;2023-03-22T00:26:12;100603.34;;;8.41;94.62
56420;BME280;42323;52.170;7.538;2023-03-22T00:28:38;100595.88;;;8.38;94.82
56420;BME280;42323;52.170;7.538;2023-03-22T00:31:06;100576.38;;;8.24;94.28
56420;BME280;42323;52.170;7.538;2023-03-22T00:33:32;100590.75;;;8.28;95.02
56420;BME280;42323;52.170;7.538;2023-03-22T00:36:01;100589.94;;;8.28;95.15
56420;BME280;42323;52.170;7.538;2023-03-22T00:38:28;100581.78;;;8.23;94.89
56420;BME280;42323;52.170;7.538;2023-03-22T00:41:18;100563.66;;;8.05;95.54
56420;BME280;42323;52.170;7.538;2023-03-22T00:43:46;100557.94;;;8.01;95.63
56420;BME280;42323;52.170;7.538;2023-03-22T00:46:14;100564.97;;;8.17;95.19
56420;BME280;42323;52.170;7.538;2023-03-22T00:48:42;100558.13;;;8.08;95.39
56420;BME280;42323;52.170;7.538;2023-03-22T00:51:09;100586.34;;;8.21;94.92
56420;BME280;42323;52.170;7.538;2023-03-22T00:53:36;100554.84;;;8.06;95.41
56420;BME280;42323;52.170;7.538;2023-03-22T00:56:06;100576.84;;;8.12;95.53
56420;BME280;42323;52.170;7.538;2023-03-22T00:58:33;100560.38;;;8.03;95.65
56420;BME280;42323;52.170;7.538;2023-03-22T01:00:59;100561.53;;;8.00;94.69
56420;BME280;42323;52.170;7.538;2023-03-22T01:03:26;100558.72;;;7.94;94.80
56420;BME280;42323;52.170;7.538;2023-03-22T01:05:53;100560.38;;;7.95;95.45
56420;BME280;42323;52.170;7.538;2023-03-22T01:08:23;100558.25;;;7.90;95.34
56420;BME280;42323;52.170;7.538;2023-03-22T01:10:49;100548.78;;;7.73;95.22
56420;BME280;42323;52.170;7.538;2023-03-22T01:13:17;100544.84;;;7.69;95.76
56420;BME280;42323;52.170;7.538;2023-03-22T01:15:44;100537.47;;;7.56;95.74
56420;BME280;42323;52.170;7.538;2023-03-22T01:18:12;100561.91;;;7.63;95.83
56420;BME280;42323;52.170;7.538;2023-03-22T01:20:39;100561.41;;;7.60;96.43
56420;BME280;42323;52.170;7.538;2023-03-22T01:23:06;100561.41;;;7.60;96.65
56420;BME280;42323;52.170;7.538;2023-03-22T01:25:32;100557.53;;;7.56;97.25
56420;BME280;42323;52.170;7.538;2023-03-22T01:27:59;100552.91;;;7.49;97.28
56420;BME280;42323;52.170;7.538;2023-03-22T01:30:28;100528.25;;;7.27;97.23
56420;BME280;42323;52.170;7.538;2023-03-22T01:32:55;100542.44;;;7.33;96.59
56420;BME280;42323;52.170;7.538;2023-03-22T01:35:21;100542.44;;;7.33;96.59
56420;BME280;42323;52.170;7.538;2023-03-22T01:37:48;100547.63;;;7.33;96.93
56420;BME280;42323;52.170;7.538;2023-03-22T01:40:14;100539.31;;;7.29;98.08
56420;BME280;42323;52.170;7.538;2023-03-22T01:42:41;100541.47;;;7.34;98.59
56420;BME280;42323;52.170;7.538;2023-03-22T01:45:32;100541.47;;;7.34;98.69
56420;BME280;42323;52.170;7.538;2023-03-22T01:51:13;100508.53;;;7.33;98.84
56420;BME280;42323;52.170;7.538;2023-03-22T01:54:00;100515.91;;;7.46;98.48
56420;BME280;42323;52.170;7.538;2023-03-22T01:56:30;100503.22;;;7.43;98.53
56420;BME280;42323;52.170;7.538;2023-03-22T01:58:58;100516.13;;;7.61;98.08
56420;BME280;42323;52.170;7.538;2023-03-22T02:01:24;100516.16;;;7.69;97.67
56420;BME280;42323;52.170;7.538;2023-03-22T02:03:59;100505.25;;;7.73;96.89
56420;BME280;42323;52.170;7.538;2023-03-22T02:06:28;100495.13;;;7.70;96.64
56420;BME280;42323;52.170;7.538;2023-03-22T02:08:55;100506.38;;;7.79;96.27
56420;BME280;42323;52.170;7.538;2023-03-22T02:11:31;100513.22;;;7.80;95.93
56420;BME280;42323;52.170;7.538;2023-03-22T02:28:14;100479.66;;;7.85;95.44
56420;BME280;42323;52.170;7.538;2023-03-22T02:31:27;100448.19;;;7.62;96.08
56420;BME280;42323;52.170;7.538;2023-03-22T02:34:21;100475.91;;;7.79;95.41
56420;BME280;42323;52.170;7.538;2023-03-22T02:39:50;100481.94;;;7.80;96.43
56420;BME280;42323;52.170;7.538;2023-03-22T02:42:31;100472.00;;;7.84;95.76
56420;BME280;42323;52.170;7.538;2023-03-22T02:45:47;100474.13;;;7.88;95.62
56420;BME280;42323;52.170;7.538;2023-03-22T02:48:21;100468.25;;;7.86;95.78
56420;BME280;42323;52.170;7.538;2023-03-22T02:50:55;100467.78;;;7.91;95.73
56420;BME280;42323;52.170;7.538;2023-03-22T02:53:45;100463.19;;;7.93;96.16
56420;BME280;42323;52.170;7.538;2023-03-22T02:56:24;100454.56;;;7.92;95.32
56420;BME280;42323;52.170;7.538;2023-03-22T02:58:54;100460.75;;;7.99;95.39
56420;BME280;42323;52.170;7.538;2023-03-22T03:01:27;100446.06;;;7.98;95.13
56420;BME280;42323;52.170;7.538;2023-03-22T03:03:58;100454.72;;;8.07;94.62
56420;BME280;42323;52.170;7.538;2023-03-22T03:06:28;100433.88;;;7.99;94.54
56420;BME280;42323;52.170;7.538;2023-03-22T03:08:57;100444.94;;;8.09;94.07
56420;BME280;42323;52.170;7.538;2023-03-22T03:11:27;100446.25;;;8.13;93.94
56420;BME280;42323;52.170;7.538;2023-03-22T03:13:54;100442.50;;;8.08;94.35
56420;BME280;42323;52.170;7.538;2023-03-22T03:16:22;100444.94;;;8.17;93.47
56420;BME280;42323;52.170;7.538;2023-03-22T03:18:59;100430.41;;;8.15;93.29
56420;BME280;42323;52.170;7.538;2023-03-22T03:21:45;100445.56;;;8.27;93.61
56420;BME280;42323;52.170;7.538;2023-03-22T03:24:38;100439.03;;;8.32;93.54
56420;BME280;42323;52.170;7.538;2023-03-22T03:27:28;100428.25;;;8.35;93.08
56420;BME280;42323;52.170;7.538;2023-03-22T03:30:06;100434.63;;;8.40;92.48
56420;BME280;42323;52.170;7.538;2023-03-22T03:32:41;100441.47;;;8.49;92.12
56420;BME280;42323;52.170;7.538;2023-03-22T03:35:14;100437.53;;;8.53;91.74
56420;BME280;42323;52.170;7.538;2023-03-22T03:37:51;100440.63;;;8.57;91.72
56420;BME280;42323;52.170;7.538;2023-03-22T03:40:25;100439.50;;;8.60;91.75
56420;BME280;42323;52.170;7.538;2023-03-22T03:42:54;100431.66;;;8.60;91.22
56420;BME280;42323;52.170;7.538;2023-03-22T03:45:22;100427.88;;;8.62;91.72
56420;BME280;42323;52.170;7.538;2023-03-22T03:47:52;100429.00;;;8.68;91.22
56420;BME280;42323;52.170;7.538;2023-03-22T03:50:23;100430.28;;;8.72;91.02
56420;BME280;42323;52.170;7.538;2023-03-22T03:52:52;100421.03;;;8.69;90.52
56420;BME280;42323;52.170;7.538;2023-03-22T03:55:20;100415.31;;;8.66;90.47
56420;BME280;42323;52.170;7.538;2023-03-22T03:57:46;100416.25;;;8.81;90.62
56420;BME280;42323;52.170;7.538;2023-03-22T04:00:13;100406.75;;;8.80;89.98
56420;BME280;42323;52.170;7.538;2023-03-22T04:02:41;100410.19;;;8.80;89.57
56420;BME280;42323;52.170;7.538;2023-03-22T04:05:09;100418.50;;;8.84;90.10
56420;BME280;42323;52.170;7.538;2023-03-22T04:07:36;100416.69;;;8.85;90.10
56420;BME280;42323;52.170;7.538;2023-03-22T04:10:03;100420.47;;;8.82;89.64
56420;BME280;42323;52.170;7.538;2023-03-22T04:12:31;100419.00;;;8.79;89.81
56420;BME280;42323;52.170;7.538;2023-03-22T04:14:58;100413.66;;;8.73;90.08
56420;BME280;42323;52.170;7.538;2023-03-22T04:17:25;100391.66;;;8.59;90.62
56420;BME280;42323;52.170;7.538;2023-03-22T04:19:55;100401.94;;;8.61;90.00
56420;BME280;42323;52.170;7.538;2023-03-22T04:22:22;100394.00;;;8.46;90.41
56420;BME280;42323;52.170;7.538;2023-03-22T04:24:49;100389.63;;;8.38;91.02
56420;BME280;42323;52.170;7.538;2023-03-22T04:27:16;100393.84;;;8.39;91.67
56420;BME280;42323;52.170;7.538;2023-03-22T04:29:43;100397.59;;;8.45;91.90
56420;BME280;42323;52.170;7.538;2023-03-22T04:32:17;100395.16;;;8.43;92.03
56420;BME280;42323;52.170;7.538;2023-03-22T04:34:44;100377.38;;;8.30;91.70
56420;BME280;42323;52.170;7.538;2023-03-22T04:37:13;100399.06;;;8.39;91.55
56420;BME280;42323;52.170;7.538;2023-03-22T04:39:40;100391.06;;;8.33;91.62
56420;BME280;42323;52.170;7.538;2023-03-22T04:42:07;100395.16;;;8.27;92.45
56420;BME280;42323;52.170;7.538;2023-03-22T04:44:34;100380.81;;;8.15;92.23
56420;BME280;42323;52.170;7.538;2023-03-22T04:47:00;100385.91;;;8.16;92.72
56420;BME280;42323;52.170;7.538;2023-03-22T04:49:27;100388.47;;;8.24;92.53
56420;BME280;42323;52.170;7.538;2023-03-22T04:51:54;100369.25;;;8.17;93.03
56420;BME280;42323;52.170;7.538;2023-03-22T04:54:22;100377.72;;;8.19;92.73
56420;BME280;42323;52.170;7.538;2023-03-22T04:56:49;100387.03;;;8.22;92.34
56420;BME280;42323;52.170;7.538;2023-03-22T04:59:16;100388.00;;;8.21;93.12
56420;BME280;42323;52.170;7.538;2023-03-22T05:01:49;100385.72;;;8.18;92.32
56420;BME280;42323;52.170;7.538;2023-03-22T05:04:17;100377.88;;;8.26;93.23
56420;BME280;42323;52.170;7.538;2023-03-22T05:06:45;100371.38;;;8.22;92.11
56420;BME280;42323;52.170;7.538;2023-03-22T05:09:12;100384.88;;;8.34;92.20
56420;BME280;42323;52.170;7.538;2023-03-22T05:11:39;100372.63;;;8.34;91.97
56420;BME280;42323;52.170;7.538;2023-03-22T05:14:07;100378.81;;;8.33;92.12
56420;BME280;42323;52.170;7.538;2023-03-22T05:16:34;100357.66;;;8.20;91.82
56420;BME280;42323;52.170;7.538;2023-03-22T05:19:01;100346.28;;;8.13;92.25
56420;BME280;42323;52.170;7.538;2023-03-22T05:21:29;100366.94;;;8.22;92.36
56420;BME280;42323;52.170;7.538;2023-03-22T05:24:02;100374.97;;;8.21;92.55
56420;BME280;42323;52.170;7.538;2023-03-22T05:26:28;100364.19;;;8.16;92.98
56420;BME280;42323;52.170;7.538;2023-03-22T05:28:55;100370.38;;;8.15;92.90
56420;BME280;42323;52.170;7.538;2023-03-22T05:31:22;100349.88;;;8.03;92.81
56420;BME280;42323;52.170;7.538;2023-03-22T05:33:51;100365.16;;;8.15;92.44
56420;BME280;42323;52.170;7.538;2023-03-22T05:36:19;100381.50;;;8.17;93.00
56420;BME280;42323;52.170;7.538;2023-03-22T05:38:46;100367.28;;;8.11;92.43
56420;BME280;42323;52.170;7.538;2023-03-22T05:41:13;100372.84;;;8.16;92.06
56420;BME280;42323;52.170;7.538;2023-03-22T05:43:40;100365.34;;;8.21;92.17
56420;BME280;42323;52.170;7.538;2023-03-22T05:46:08;100351.31;;;8.14;91.95
56420;BME280;42323;52.170;7.538;2023-03-22T05:48:40;100356.50;;;8.22;92.59
56420;BME280;42323;52.170;7.538;2023-03-22T05:51:12;100370.84;;;8.35;91.98
56420;BME280;42323;52.170;7.538;2023-03-22T05:53:48;100369.19;;;8.42;91.47
56420;BME280;42323;52.170;7.538;2023-03-22T05:56:15;100376.38;;;8.48;91.52
56420;BME280;42323;52.170;7.538;2023-03-22T05:58:41;100378.16;;;8.56;91.03
56420;BME280;42323;52.170;7.538;2023-03-22T06:01:10;100353.50;;;8.50;90.84
56420;BME280;42323;52.170;7.538;2023-03-22T06:03:38;100364.88;;;8.65;90.56
56420;BME280;42323;52.170;7.538;2023-03-22T06:06:06;100366.50;;;8.66;90.04
56420;BME280;42323;52.170;7.538;2023-03-22T06:08:37;100349.72;;;8.61;90.20
56420;BME280;42323;52.170;7.538;2023-03-22T06:11:05;100361.75;;;8.70;89.69
56420;BME280;42323;52.170;7.538;2023-03-22T06:13:32;100359.63;;;8.73;89.72
56420;BME280;42323;52.170;7.538;2023-03-22T06:15:59;100361.75;;;8.70;89.83
56420;BME280;42323;52.170;7.538;2023-03-22T06:18:28;100328.19;;;8.50;89.74
56420;BME280;42323;52.170;7.538;2023-03-22T06:20:54;100331.91;;;8.64;89.64
56420;BME280;42323;52.170;7.538;2023-03-22T06:23:21;100322.78;;;8.60;89.46
56420;BME280;42323;52.170;7.538;2023-03-22T06:25:47;100338.25;;;8.70;89.24
56420;BME280;42323;52.170;7.538;2023-03-22T06:28:14;100351.44;;;8.76;89.63
56420;BME280;42323;52.170;7.538;2023-03-22T06:30:41;100347.50;;;8.80;88.83
56420;BME280;42323;52.170;7.538;2023-03-22T06:33:07;100327.81;;;8.70;89.58
56420;BME280;42323;52.170;7.538;2023-03-22T06:35:34;100346.16;;;8.85;89.79
56420;BME280;42323;52.170;7.538;2023-03-22T06:38:01;100344.19;;;8.87;89.15
56420;BME280;42323;52.170;7.538;2023-03-22T06:40:27;100311.47;;;8.68;88.90
56420;BME280;42323;52.170;7.538;2023-03-22T06:42:54;100333.06;;;8.93;88.66
56420;BME280;42323;52.170;7.538;2023-03-22T06:45:21;100332.38;;;8.99;88.93
56420;BME280;42323;52.170;7.538;2023-03-22T06:47:47;100331.91;;;8.95;88.37
56420;BME280;42323;52.170;7.538;2023-03-22T06:50:16;100336.56;;;9.08;88.45
56420;BME280;42323;52.170;7.538;2023-03-22T06:52:42;100326.44;;;9.05;87.88
56420;BME280;42323;52.170;7.538;2023-03-22T06:55:09;100316.03;;;8.97;87.65
56420;BME280;42323;52.170;7.538;2023-03-22T06:57:35;100331.00;;;9.11;88.14
56420;BME280;42323;52.170;7.538;2023-03-22T07:00:02;100303.34;;;8.94;87.66
56420;BME280;42323;52.170;7.538;2023-03-22T07:02:30;100320.88;;;9.08;87.62
56420;BME280;42323;52.170;7.538;2023-03-22T07:04:56;100324.81;;;9.04;87.88
56420;BME280;42323;52.170;7.538;2023-03-22T07:07:23;100320.28;;;8.98;88.09
56420;BME280;42323;52.170;7.538;2023-03-22T07:09:49;100320.28;;;8.98;88.22
56420;BME280;42323;52.170;7.538;2023-03-22T07:12:16;100326.69;;;9.18;87.56
56420;BME280;42323;52.170;7.538;2023-03-22T07:14:44;100308.38;;;9.18;87.01
56420;BME280;42323;52.170;7.538;2023-03-22T07:17:10;100316.69;;;9.22;86.67
56420;BME280;42323;52.170;7.538;2023-03-22T07:19:39;100312.41;;;9.29;86.76
56420;BME280;42323;52.170;7.538;2023-03-22T07:22:07;100332.59;;;9.35;86.16
56420;BME280;42323;52.170;7.538;2023-03-22T07:24:34;100321.97;;;9.37;86.18
56420;BME280;42323;52.170;7.538;2023-03-22T07:27:09;100307.72;;;9.24;85.78
56420;BME280;42323;52.170;7.538;2023-03-22T07:29:36;100331.22;;;9.47;85.29
56420;BME280;42323;52.170;7.538;2023-03-22T07:32:03;100312.19;;;9.53;84.40
56420;BME280;42323;52.170;7.538;2023-03-22T07:34:29;100337.41;;;9.84;83.09
56420;BME280;42323;52.170;7.538;2023-03-22T07:36:56;100304.13;;;9.93;81.68
56420;BME280;42323;52.170;7.538;2023-03-22T07:39:23;100313.91;;;10.28;80.16
56420;BME280;42323;52.170;7.538;2023-03-22T07:41:50;100321.19;;;10.63;78.93
56420;BME280;42323;52.170;7.538;2023-03-22T07:44:17;100310.09;;;10.82;77.17
56420;BME280;42323;52.170;7.538;2023-03-22T07:46:43;100316.13;;;10.97;77.13
56420;BME280;42323;52.170;7.538;2023-03-22T07:49:10;100320.03;;;11.08;76.19
56420;BME280;42323;52.170;7.538;2023-03-22T07:51:37;100320.25;;;11.07;76.17
56420;BME280;42323;52.170;7.538;2023-03-22T07:54:03;100316.25;;;11.11;76.38
56420;BME280;42323;52.170;7.538;2023-03-22T07:56:33;100303.81;;;10.98;77.11
56420;BME280;42323;52.170;7.538;2023-03-22T07:58:59;100309.75;;;11.07;75.94
56420;BME280;42323;52.170;7.538;2023-03-22T08:01:26;100309.13;;;11.04;75.55
56420;BME280;42323;52.170;7.538;2023-03-22T08:03:52;100312.50;;;11.20;74.79
56420;BME280;42323;52.170;7.538;2023-03-22T08:06:19;100307.94;;;11.28;74.93
56420;BME280;42323;52.170;7.538;2023-03-22T08:08:46;100292.31;;;11.42;73.80
56420;BME280;42323;52.170;7.538;2023-03-22T08:11:13;100324.78;;;11.62;73.35
56420;BME280;42323;52.170;7.538;2023-03-22T08:13:39;100313.78;;;11.80;73.01
56420;BME280;42323;52.170;7.538;2023-03-22T08:16:06;100304.56;;;11.84;72.22
56420;BME280;42323;52.170;7.538;2023-03-22T08:18:33;100317.78;;;12.04;72.23
56420;BME280;42323;52.170;7.538;2023-03-22T08:20:59;100302.31;;;12.16;70.67
56420;BME280;42323;52.170;7.538;2023-03-22T08:23:26;100308.06;;;12.33;70.46
56420;BME280;42323;52.170;7.538;2023-03-22T08:26:07;100316.31;;;12.29;71.03
56420;BME280;42323;52.170;7.538;2023-03-22T08:28:33;100320.09;;;12.14;71.36
56420;BME280;42323;52.170;7.538;2023-03-22T08:31:00;100330.09;;;11.97;71.52
56420;BME280;42323;52.170;7.538;2023-03-22T08:33:27;100318.50;;;11.85;71.29
56420;BME280;42323;52.170;7.538;2023-03-22T08:36:04;100336.38;;;11.74;72.46
56420;BME280;42323;52.170;7.538;2023-03-22T08:38:31;100330.63;;;11.64;72.34
56420;BME280;42323;52.170;7.538;2023-03-22T08:40:58;100322.00;;;11.70;71.31
56420;BME280;42323;52.170;7.538;2023-03-22T08:43:24;100323.75;;;11.85;70.78
56420;BME280;42323;52.170;7.538;2023-03-22T08:45:51;100321.00;;;11.99;70.70
56420;BME280;42323;52.170;7.538;2023-03-22T08:48:17;100314.41;;;12.10;70.65
56420;BME280;42323;52.170;7.538;2023-03-22T08:50:44;100324.59;;;12.26;70.30
56420;BME280;42323;52.170;7.538;2023-03-22T08:53:10;100327.03;;;12.28;69.49
56420;BME280;42323;52.170;7.538;2023-03-22T08:55:39;100317.72;;;12.25;68.94
56420;BME280;42323;52.170;7.538;2023-03-22T08:58:11;100306.97;;;12.20;68.99
56420;BME280;42323;52.170;7.538;2023-03-22T09:00:38;100320.22;;;12.40;67.95
56420;BME280;42323;52.170;7.538;2023-03-22T09:03:14;100312.59;;;12.59;67.66
56420;BME280;42323;52.170;7.538;2023-03-22T09:05:41;100309.38;;;12.63;66.54
56420;BME280;42323;52.170;7.538;2023-03-22T09:08:07;100324.31;;;12.56;65.94
56420;BME280;42323;52.170;7.538;2023-03-22T09:10:45;100312.50;;;12.39;67.43
56420;BME280;42323;52.170;7.538;2023-03-22T09:13:16;100291.25;;;12.27;67.02
56420;BME280;42323;52.170;7.538;2023-03-22T09:15:43;100288.31;;;12.09;67.80
56420;BME280;42323;52.170;7.538;2023-03-22T09:18:13;100305.72;;;12.10;67.69
56420;BME280;42323;52.170;7.538;2023-03-22T09:20:41;100309.38;;;12.15;66.73
56420;BME280;42323;52.170;7.538;2023-03-22T09:23:09;100299.09;;;12.14;66.41
56420;BME280;42323;52.170;7.538;2023-03-22T09:25:35;100309.59;;;12.20;66.14
56420;BME280;42323;52.170;7.538;2023-03-22T09:28:02;100314.50;;;12.30;66.13
56420;BME280;42323;52.170;7.538;2023-03-22T09:30:29;100307.25;;;12.32;65.54
56420;BME280;42323;52.170;7.538;2023-03-22T09:32:56;100304.63;;;12.39;66.22
56420;BME280;42323;52.170;7.538;2023-03-22T09:35:22;100308.53;;;12.49;64.57
56420;BME280;42323;52.170;7.538;2023-03-22T09:37:49;100292.19;;;12.54;64.96
56420;BME280;42323;52.170;7.538;2023-03-22T09:40:20;100296.88;;;12.72;64.29
56420;BME280;42323;52.170;7.538;2023-03-22T09:42:54;100296.06;;;12.71;63.88
56420;BME280;42323;52.170;7.538;2023-03-22T09:45:27;100296.91;;;12.78;63.89
56420;BME280;42323;52.170;7.538;2023-03-22T09:48:03;100316.16;;;12.92;63.82
56420;BME280;42323;52.170;7.538;2023-03-22T09:50:32;100297.75;;;13.12;62.33
56420;BME280;42323;52.170;7.538;2023-03-22T09:53:11;100285.00;;;13.16;61.71
56420;BME280;42323;52.170;7.538;2023-03-22T09:56:06;100294.38;;;13.32;62.37
56420;BME280;42323;52.170;7.538;2023-03-22T10:06:36;100301.41;;;13.11;61.88
56420;BME280;42323;52.170;7.538;2023-03-22T10:09:13;100292.66;;;12.84;63.11
56420;BME280;42323;52.170;7.538;2023-03-22T10:12:06;100303.72;;;12.60;64.14
56420;BME280;42323;52.170;7.538;2023-03-22T10:15:03;100298.66;;;12.58;64.61
56420;BME280;42323;52.170;7.538;2023-03-22T10:17:34;100283.88;;;12.50;64.32
56420;BME280;42323;52.170;7.538;2023-03-22T10:20:10;100297.88;;;12.71;64.08
56420;BME280;42323;52.170;7.538;2023-03-22T11:24:54;100266.63;;;13.42;61.28
56420;BME280;42323;52.170;7.538;2023-03-22T11:38:22;100234.19;;;12.82;61.98
56420;BME280;42323;52.170;7.538;2023-03-22T11:40:58;100180.81;;;12.62;61.91
56420;BME280;42323;52.170;7.538;2023-03-22T11:43:32;100210.75;;;12.80;61.44
56420;BME280;42323;52.170;7.538;2023-03-22T11:46:00;100209.72;;;12.81;60.85
56420;BME280;42323;52.170;7.538;2023-03-22T11:48:29;100263.81;;;13.24;60.65
56420;BME280;42323;52.170;7.538;2023-03-22T11:51:27;100277.75;;;13.18;60.58
56420;BME280;42323;52.170;7.538;2023-03-22T11:54:02;100273.28;;;13.12;62.14
56420;BME280;42323;52.170;7.538;2023-03-22T11:56:32;100260.94;;;13.05;61.99
56420;BME280;42323;52.170;7.538;2023-03-22T11:59:06;100272.06;;;13.01;63.15
56420;BME280;42323;52.170;7.538;2023-03-22T12:01:41;100254.16;;;12.50;64.62
56420;BME280;42323;52.170;7.538;2023-03-22T12:04:15;100269.03;;;12.29;67.56
56420;BME280;42323;52.170;7.538;2023-03-22T12:06:43;100261.03;;;11.96;69.15
56420;BME280;42323;52.170;7.538;2023-03-22T12:09:11;100273.63;;;11.79;70.70
56420;BME280;42323;52.170;7.538;2023-03-22T12:11:46;100260.69;;;11.50;71.56
56420;BME280;42323;52.170;7.538;2023-03-22T12:22:20;100285.97;;;11.08;75.81
56420;BME280;42323;52.170;7.538;2023-03-22T12:25:10;100270.91;;;10.95;76.11
56420;BME280;42323;52.170;7.538;2023-03-22T12:30:20;100278.66;;;10.82;76.02
56420;BME280;42323;52.170;7.538;2023-03-22T12:32:53;100284.22;;;10.72;76.54
56420;BME280;42323;52.170;7.538;2023-03-22T12:35:28;100289.88;;;10.76;77.43
56420;BME280;42323;52.170;7.538;2023-03-22T12:38:00;100286.56;;;10.67;77.88
56420;BME280;42323;52.170;7.538;2023-03-22T12:40:36;100296.75;;;10.77;76.79
56420;BME280;42323;52.170;7.538;2023-03-22T12:43:12;100289.34;;;10.66;76.70
56420;BME280;42323;52.170;7.538;2023-03-22T14:00:12;100194.91;;;12.47;65.28
56420;BME280;42323;52.170;7.538;2023-03-22T14:03:35;100248.78;;;12.85;64.90
56420;BME280;42323;52.170;7.538;2023-03-22T14:09:59;100239.44;;;12.82;64.32
56420;BME280;42323;52.170;7.538;2023-03-22T14:12:34;100230.13;;;12.60;65.27
56420;BME280;42323;52.170;7.538;2023-03-22T14:15:03;100229.53;;;12.58;64.12
56420;BME280;42323;52.170;7.538;2023-03-22T14:17:38;100267.53;;;12.68;65.61
56420;BME280;42323;52.170;7.538;2023-03-22T14:20:31;100256.59;;;12.58;65.79
56420;BME280;42323;52.170;7.538;2023-03-22T14:23:13;100258.00;;;12.61;65.84
56420;BME280;42323;52.170;7.538;2023-03-22T14:25:41;100244.31;;;12.65;65.37
56420;BME280;42323;52.170;7.538;2023-03-22T14:28:17;100234.78;;;12.58;65.55
56420;BME280;42323;52.170;7.538;2023-03-22T14:30:43;100235.94;;;12.42;66.60
56420;BME280;42323;52.170;7.538;2023-03-22T14:33:15;100246.06;;;12.45;65.89
56420;BME280;42323;52.170;7.538;2023-03-22T15:00:07;100275.97;;;12.02;67.83
56420;BME280;42323;52.170;7.538;2023-03-22T15:02:42;100256.09;;;11.87;68.23
56420;BME280;42323;52.170;7.538;2023-03-22T15:05:19;100271.03;;;11.86;68.51
56420;BME280;42323;52.170;7.538;2023-03-22T15:07:51;100263.81;;;11.88;68.41
56420;BME280;42323;52.170;7.538;2023-03-22T15:10:20;100273.09;;;11.91;67.97
56420;BME280;42323;52.170;7.538;2023-03-22T15:12:48;100267.59;;;11.86;68.70
56420;BME280;42323;52.170;7.538;2023-03-22T15:15:16;100259.72;;;11.86;69.52
56420;BME280;42323;52.170;7.538;2023-03-22T15:17:43;100271.44;;;11.83;68.78
56420;BME280;42323;52.170;7.538;2023-03-22T15:20:13;100261.88;;;11.75;68.89
56420;BME280;42323;52.170;7.538;2023-03-22T15:38:51;100261.41;;;11.37;74.22
56420;BME280;42323;52.170;7.538;2023-03-22T15:41:40;100254.56;;;11.43;73.79
56420;BME280;42323;52.170;7.538;2023-03-22T15:44:27;100248.75;;;11.47;73.26
56420;BME280;42323;52.170;7.538;2023-03-22T15:46:58;100224.53;;;11.45;73.18
56420;BME280;42323;52.170;7.538;2023-03-22T15:49:39;100235.16;;;11.65;72.37
56420;BME280;42323;52.170;7.538;2023-03-22T15:54:33;100242.91;;;11.80;72.34
56420;BME280;42323;52.170;7.538;2023-03-22T15:57:19;100224.19;;;11.83;70.99
56420;BME280;42323;52.170;7.538;2023-03-22T16:02:28;100237.47;;;11.81;72.23
56420;BME280;42323;52.170;7.538;2023-03-22T16:04:55;100230.59;;;11.80;72.12
56420;BME280;42323;52.170;7.538;2023-03-22T16:07:23;100243.69;;;11.74;73.23
56420;BME280;42323;52.170;7.538;2023-03-22T16:09:50;100231.72;;;11.65;72.87
56420;BME280;42323;52.170;7.538;2023-03-22T16:12:17;100233.72;;;11.63;73.08
56420;BME280;42323;52.170;7.538;2023-03-22T16:14:43;100235.94;;;11.59;73.05
56420;BME280;42323;52.170;7.538;2023-03-22T16:17:20;100234.09;;;11.53;73.48
56420;BME280;42323;52.170;7.538;2023-03-22T16:19:45;100243.00;;;11.59;73.47
56420;BME280;42323;52.170;7.538;2023-03-22T16:22:12;100233.72;;;11.63;73.27
56420;BME280;42323;52.170;7.538;2023-03-22T16:24:39;100231.91;;;11.63;72.66
56420;BME280;42323;52.170;7.538;2023-03-22T16:27:14;100234.38;;;11.71;71.85
56420;BME280;42323;52.170;7.538;2023-03-22T16:29:41;100236.22;;;11.71;71.68
56420;BME280;42323;52.170;7.538;2023-03-22T16:32:23;100223.84;;;11.65;71.37
56420;BME280;42323;52.170;7.538;2023-03-22T16:40:17;100208.72;;;11.67;71.47
56420;BME280;42323;52.170;7.538;2023-03-22T16:42:43;100225.16;;;11.82;70.16
56420;BME280;42323;52.170;7.538;2023-03-22T16:45:30;100231.88;;;11.91;70.15
56420;BME280;42323;52.170;7.538;2023-03-22T16:47:56;100217.94;;;11.84;70.55
56420;BME280;42323;52.170;7.538;2023-03-22T16:50:24;100226.03;;;11.89;70.28
56420;BME280;42323;52.170;7.538;2023-03-22T16:52:50;100237.19;;;11.98;69.56
56420;BME280;42323;52.170;7.538;2023-03-22T16:57:49;100235.38;;;11.98;71.10
56420;BME280;42323;52.170;7.538;2023-03-22T17:19:09;100202.41;;;11.26;74.92
56420;BME280;42323;52.170;7.538;2023-03-22T17:21:34;100230.78;;;11.44;75.61
56420;BME280;42323;52.170;7.538;2023-03-22T17:24:00;100214.13;;;11.30;76.22
56420;BME280;42323;52.170;7.538;2023-03-22T17:26:25;100227.09;;;11.39;76.04
56420;BME280;42323;52.170;7.538;2023-03-22T17:28:51;100226.16;;;11.46;75.07
56420;BME280;42323;52.170;7.538;2023-03-22T17:31:17;100206.53;;;11.36;76.08
56420;BME280;42323;52.170;7.538;2023-03-22T17:33:43;100217.00;;;11.36;76.21
56420;BME280;42323;52.170;7.538;2023-03-22T17:36:09;100204.84;;;11.28;76.60